Roseau, Dominica

9:01 PM AST on April 19, 2015 (GMT -0400)
J73WA Weather Station | | Change Station
CLOSE
Current Station
Personal Weather Station
Location: Portsmouth, Dominica
Elevation: 20 ft
Nearby Weather Stations

Elev 20 ft 15.58 °N, 61.46 °W | Updated 4 seconds ago

Rain
Rain
78.8 °F
Feels Like 83 °F
N
2.6
Wind Variable Wind from ENE
Gusts 8.8 mph

Today
High -- | Low -- °F
--% Chance of Precip.
Yesterday
High -- | Low -- °F
Precip. -- in
5:48 AM 6:20 PM
New Moon, 2% visible
Pressure 29.98 in
Visibility 6.2 miles
Clouds Few 2100 ft
Heat Index 83 °F
Dew Point 77 °F
Humidity 94%
Rainfall 0.20 in
Snow Depth Not available.
UV 0 out of 12
Pollen Not available.
Air Quality Not available.
Flu Activity Not available.
METAR TFFF 200100Z AUTO 08009KT 9999 FEW021 25/22 Q1015

More Conditions Fewer Conditions

Pressure 29.98 in
Visibility 6.2 miles
Clouds Few 2100 ft
Heat Index 83 °F
Dew Point 77 °F
Humidity 94%
Rainfall 0.20 in
Snow Depth Not available.
UV 0 out of 12
Pollen Not available.
Air Quality Not available.
Flu Activity Not available.
METAR TFFF 200100Z AUTO 08009KT 9999 FEW021 25/22 Q1015

More Conditions Fewer Conditions

10-Day Weather Forecast

Almanac

Astronomy

Apr. 19, 2015 Rise Set
Actual Time
Civil Twilight
Nautical Twilight
Astronomical Twilight
Moon
Length of Visible Light
Length of Day
Tomorrow will be .
, % of the Moon is Illuminated

Today's Extremes

Country Highs Country Lows

Community

WunderPhotos

Upload Photos

1,815,080 photos uploaded!

WunderBlogs® & News

Nearby

Air Quality

  Air Quality AQ Index Pollutant
Not available.

Snow Depth

Station Depth Elevation

Earthquake Activity

City Distance Mag. Time & Date
Minimum magnitude displayed is 2.5.

Coastal Water Temperatures

Place Temperature

Stations

Nearby Weather Stations

Station Location Temp. Windchill Dew Point Humidity Wind Precip. Elev Updated Type